Time;durP1;ratioP1;P1;durP2;ratioP2;P2;SDS_P1;SDS_P2;PMS_P1;PMS_P2;Temp;Humidity;BMP_temperature;BMP_pressure;BME280_temperature;BME280_humidity;BME280_pressure;Samples;Min_cycle;Max_cycle;Signal;HPM_P1;HPM_P2
2024/04/21 00:00:27;;;;;;;;;;;;;;;;;;1097687;27;19931;-76
2024/04/21 00:00:58;;;;;;;;;;;;;;;;;;1097710;27;19931;-76
2024/04/21 00:01:28;;;;;;;;;;;;;;;;;;1104669;26;19934;-76
2024/04/21 00:01:58;;;;;;;;;;;;;;;;;;1105182;26;19937;-76
2024/04/21 00:02:28;;;;;;;;;;;;;;;;;;1104534;26;19958;-76
2024/04/21 00:02:58;;;;;;;;;;;;;;;;;;1101404;26;19946;-76
2024/04/21 00:03:29;;;;;;;;;;;;;;;;;;1100989;26;19944;-76
2024/04/21 00:03:59;;;;;;;;;;;;;;;;;;1100516;26;19938;-77
2024/04/21 00:04:29;;;;;;;;;;;;;;;;;;1104722;26;20003;-77
2024/04/21 00:04:59;;;;;;;;;;;;;;;;;;1095720;27;19958;-77
2024/04/21 00:05:30;;;;;;;;;;;;;;;;;;1097066;27;20029;-77
2024/04/21 00:06:00;;;;;;;;;;;;;;;;;;1097605;27;19938;-77
2024/04/21 00:06:30;;;;;;;;;;;;;;;;;;1097819;26;19950;-77
2024/04/21 00:07:01;;;;;;;;;;;;;;;;;;1104579;26;20003;-77
2024/04/21 00:07:32;;;;;;;;;;;;;;;;;;1104620;26;20274;-77
2024/04/21 00:08:02;;;;;;;;;;;;;;;;;;1104558;26;19938;-77
2024/04/21 00:08:33;;;;;;;;;;;;;;;;;;1105254;26;19937;-77
2024/04/21 00:09:03;;;;;;;;;;;;;;;;;;1105150;26;20332;-77
2024/04/21 00:09:34;;;;;;;;;;;;;;;;;;1117064;21;19952;-76
2024/04/21 00:10:04;;;;;;;;;;;;;;;;;;1112578;26;19929;-76
2024/04/21 00:10:34;;;;;;;;;;;;;;;;;;1112448;26;19938;-76
2024/04/21 00:11:04;;;;;;;;;;;;;;;;;;1112044;26;19930;-76
2024/04/21 00:11:35;;;;;;;;;;;;;;;;;;1112246;26;19930;-76
2024/04/21 00:12:05;;;;;;;;;;;;;;;;;;1112166;26;20002;-76
2024/04/21 00:12:35;;;;;;;;;;;;;;;;;;1104712;26;19962;-76
2024/04/21 00:13:05;;;;;;;;;;;;;;;;;;1104650;26;19995;-76
2024/04/21 00:13:36;;;;;;;;;;;;;;;;;;1104530;26;20421;-76
2024/04/21 00:14:06;;;;;;;;;;;;;;;;;;1103355;26;20376;-77
2024/04/21 00:14:36;;;;;;;;;;;;;;;;;;1111922;26;19929;-77
2024/04/21 00:15:06;;;;;;;;;;;;;;;;;;1104406;26;19961;-77
2024/04/21 00:15:36;;;;;;;;;;;;;;;;;;1104559;26;20025;-77
2024/04/21 00:16:07;;;;;;;;;;;;;;;;;;1106549;26;20021;-77
2024/04/21 00:16:37;;;;;;;;;;;;;;;;;;1108640;26;19930;-77
2024/04/21 00:17:07;;;;;;;;;;;;;;;;;;1108040;26;19945;-78
2024/04/21 00:17:37;;;;;;;;;;;;;;;;;;1107788;26;20016;-76
2024/04/21 00:18:08;;;;;;;;;;;;;;;;;;1115519;26;19945;-76
2024/04/21 00:18:38;;;;;;;;;;;;;;;;;;1108775;26;19937;-76
2024/04/21 00:19:08;;;;;;;;;;;;;;;;;;1108591;26;19981;-77
2024/04/21 00:19:39;;;;;;;;;;;;;;;;;;1104849;26;19961;-77
2024/04/21 00:20:09;;;;;;;;;;;;;;;;;;1097346;26;19982;-77
2024/04/21 00:20:39;;;;;;;;;;;;;;;;;;1107021;26;22109;-77
2024/04/21 00:21:09;;;;;;;;;;;;;;;;;;1104539;26;20313;-77
2024/04/21 00:21:40;;;;;;;;;;;;;;;;;;1104620;26;20336;-77
2024/04/21 00:22:10;;;;;;;;;;;;;;;;;;1104686;26;20321;-77
2024/04/21 00:22:40;;;;;;;;;;;;;;;;;;1108736;26;19942;-78
2024/04/21 00:23:10;;;;;;;;;;;;;;;;;;1108454;26;19937;-77
2024/04/21 00:23:41;;;;;;;;;;;;;;;;;;1106745;26;19941;-77
2024/04/21 00:24:11;;;;;;;;;;;;;;;;;;1101402;26;20307;-77
2024/04/21 00:24:41;;;;;;;;;;;;;;;;;;1101568;26;19930;-77
2024/04/21 00:25:12;;;;;;;;;;;;;;;;;;1107897;26;19933;-77
2024/04/21 00:25:42;;;;;;;;;;;;;;;;;;1107779;26;20024;-78
2024/04/21 00:26:12;;;;;;;;;;;;;;;;;;1107958;26;20286;-76
2024/04/21 00:26:42;;;;;;;;;;;;;;;;;;1108081;26;19930;-76
2024/04/21 00:27:13;;;;;;;;;;;;;;;;;;1107605;26;19958;-76
2024/04/21 00:27:43;;;;;;;;;;;;;;;;;;1101013;26;19930;-76
2024/04/21 00:28:13;;;;;;;;;;;;;;;;;;1101265;26;19945;-76
2024/04/21 00:28:47;;;;;;;;;;;;;;;;;;1108662;26;20420;-76
2024/04/21 00:29:18;;;;;;;;;;;;;;;;;;1101969;26;19937;-76
2024/04/21 00:29:48;;;;;;;;;;;;;;;;;;1103885;26;19937;-76
2024/04/21 00:30:18;;;;;;;;;;;;;;;;;;1097124;26;19938;-76
2024/04/21 00:30:48;;;;;;;;;;;;;;;;;;1097766;27;19937;-76
2024/04/21 00:31:19;;;;;;;;;;;;;;;;;;1104631;26;19937;-76
2024/04/21 00:31:49;;;;;;;;;;;;;;;;;;1104681;26;19930;-76
2024/04/21 00:32:19;;;;;;;;;;;;;;;;;;1112288;26;19941;-76
2024/04/21 00:32:49;;;;;;;;;;;;;;;;;;1104512;26;19937;-76
2024/04/21 00:33:20;;;;;;;;;;;;;;;;;;1104620;26;19937;-77
2024/04/21 00:33:50;;;;;;;;;;;;;;;;;;1104597;26;19934;-77
2024/04/21 00:34:20;;;;;;;;;;;;;;;;;;1104911;26;20402;-76
2024/04/21 00:34:50;;;;;;;;;;;;;;;;;;1112521;26;20439;-77
2024/04/21 00:35:20;;;;;;;;;;;;;;;;;;1112041;26;20286;-77
2024/04/21 00:35:51;;;;;;;;;;;;;;;;;;1111376;26;19961;-77
2024/04/21 00:36:21;;;;;;;;;;;;;;;;;;1112037;26;19965;-77
2024/04/21 00:36:51;;;;;;;;;;;;;;;;;;1104716;26;19937;-77
2024/04/21 00:37:22;;;;;;;;;;;;;;;;;;1104538;26;20689;-77
2024/04/21 00:37:52;;;;;;;;;;;;;;;;;;1104647;26;19974;-77
2024/04/21 00:38:22;;;;;;;;;;;;;;;;;;1104513;26;19937;-77
2024/04/21 00:38:52;;;;;;;;;;;;;;;;;;1104732;26;19934;-77
2024/04/21 00:39:22;;;;;;;;;;;;;;;;;;1104599;26;19961;-77
2024/04/21 00:39:53;;;;;;;;;;;;;;;;;;1108687;26;19949;-77
2024/04/21 00:40:23;;;;;;;;;;;;;;;;;;1108301;26;20427;-77
2024/04/21 00:40:53;;;;;;;;;;;;;;;;;;1108086;26;20304;-77
2024/04/21 00:41:24;;;;;;;;;;;;;;;;;;1107738;26;20033;-77
2024/04/21 00:41:54;;;;;;;;;;;;;;;;;;1108304;26;19965;-77
2024/04/21 00:42:24;;;;;;;;;;;;;;;;;;1107602;26;20105;-76
2024/04/21 00:42:54;;;;;;;;;;;;;;;;;;1107790;26;19938;-76
2024/04/21 00:43:24;;;;;;;;;;;;;;;;;;1101271;26;19937;-76
2024/04/21 00:43:55;;;;;;;;;;;;;;;;;;1094101;27;19939;-76
2024/04/21 00:44:25;;;;;;;;;;;;;;;;;;1101319;26;19966;-76
2024/04/21 00:44:55;;;;;;;;;;;;;;;;;;1093368;27;19931;-76
2024/04/21 00:45:25;;;;;;;;;;;;;;;;;;1098167;26;20425;-76
2024/04/21 00:45:56;;;;;;;;;;;;;;;;;;1102958;26;19941;-76
2024/04/21 00:46:26;;;;;;;;;;;;;;;;;;1104440;26;19934;-76
2024/04/21 00:46:56;;;;;;;;;;;;;;;;;;1106609;26;20003;-76
2024/04/21 00:47:26;;;;;;;;;;;;;;;;;;1104547;26;19944;-77
2024/04/21 00:47:57;;;;;;;;;;;;;;;;;;1108507;26;19930;-76
2024/04/21 00:48:27;;;;;;;;;;;;;;;;;;1115764;26;19998;-76
2024/04/21 00:48:57;;;;;;;;;;;;;;;;;;1115049;26;19929;-76
2024/04/21 00:49:27;;;;;;;;;;;;;;;;;;1114822;26;20013;-76
2024/04/21 00:49:58;;;;;;;;;;;;;;;;;;1115528;26;20483;-76
2024/04/21 00:50:28;;;;;;;;;;;;;;;;;;1115443;26;20353;-76
2024/04/21 00:50:58;;;;;;;;;;;;;;;;;;1115942;26;19937;-76
2024/04/21 00:51:28;;;;;;;;;;;;;;;;;;1112305;26;20312;-76
2024/04/21 00:51:59;;;;;;;;;;;;;;;;;;1104498;26;19965;-76
2024/04/21 00:52:29;;;;;;;;;;;;;;;;;;1104562;26;20039;-76
2024/04/21 00:52:59;;;;;;;;;;;;;;;;;;1104715;26;19938;-76
2024/04/21 00:53:29;;;;;;;;;;;;;;;;;;1104522;26;19938;-76
2024/04/21 00:54:00;;;;;;;;;;;;;;;;;;1112138;26;19930;-76
2024/04/21 00:54:30;;;;;;;;;;;;;;;;;;1112305;26;20380;-76
2024/04/21 00:55:00;;;;;;;;;;;;;;;;;;1104404;26;20365;-76
2024/04/21 00:55:30;;;;;;;;;;;;;;;;;;1104490;26;19934;-76
2024/04/21 00:56:00;;;;;;;;;;;;;;;;;;1104458;26;20050;-76
2024/04/21 00:56:31;;;;;;;;;;;;;;;;;;1104609;26;19966;-76
2024/04/21 00:57:01;;;;;;;;;;;;;;;;;;1104588;26;19962;-76
2024/04/21 00:57:31;;;;;;;;;;;;;;;;;;1104367;26;20007;-76
2024/04/21 00:58:02;;;;;;;;;;;;;;;;;;1104617;26;19938;-76
2024/04/21 00:58:32;;;;;;;;;;;;;;;;;;1099575;26;19945;-76
2024/04/21 00:59:02;;;;;;;;;;;;;;;;;;1104450;26;19974;-76
2024/04/21 00:59:33;;;;;;;;;;;;;;;;;;1104246;26;19989;-76
2024/04/21 01:00:03;;;;;;;;;;;;;;;;;;1104422;26;19930;-76
2024/04/21 01:00:33;;;;;;;;;;;;;;;;;;1104445;26;19930;-76
2024/04/21 01:01:04;;;;;;;;;;;;;;;;;;1104429;26;19993;-77
2024/04/21 01:01:34;;;;;;;;;;;;;;;;;;1112010;26;19929;-77
2024/04/21 01:02:04;;;;;;;;;;;;;;;;;;1104538;26;19937;-77
2024/04/21 01:02:34;;;;;;;;;;;;;;;;;;1104624;26;19970;-77
2024/04/21 01:03:05;;;;;;;;;;;;;;;;;;1104761;26;19958;-77
2024/04/21 01:03:35;;;;;;;;;;;;;;;;;;1104206;26;20004;-77
2024/04/21 01:04:05;;;;;;;;;;;;;;;;;;1104425;26;19930;-77
2024/04/21 01:04:35;;;;;;;;;;;;;;;;;;1104630;26;19958;-77
2024/04/21 01:05:06;;;;;;;;;;;;;;;;;;1108357;26;19946;-77
2024/04/21 01:05:36;;;;;;;;;;;;;;;;;;1107950;26;19929;-77
2024/04/21 01:06:06;;;;;;;;;;;;;;;;;;1107665;26;20401;-77
2024/04/21 01:06:36;;;;;;;;;;;;;;;;;;1104674;26;19934;-77
2024/04/21 01:07:07;;;;;;;;;;;;;;;;;;1112032;26;19933;-77
2024/04/21 01:07:37;;;;;;;;;;;;;;;;;;1112721;21;19974;-76
2024/04/21 01:08:07;;;;;;;;;;;;;;;;;;1111596;21;20305;-76
2024/04/21 01:08:37;;;;;;;;;;;;;;;;;;1111926;26;19933;-75
2024/04/21 01:09:08;;;;;;;;;;;;;;;;;;1111548;26;19937;-74
2024/04/21 01:09:38;;;;;;;;;;;;;;;;;;1112168;26;19933;-75
2024/04/21 01:10:08;;;;;;;;;;;;;;;;;;1111990;26;20343;-73
2024/04/21 01:10:38;;;;;;;;;;;;;;;;;;1112266;26;19929;-76
2024/04/21 01:11:08;;;;;;;;;;;;;;;;;;1112115;26;19930;-76
2024/04/21 01:11:39;;;;;;;;;;;;;;;;;;1119135;21;19948;-76
2024/04/21 01:12:09;;;;;;;;;;;;;;;;;;1120766;21;19929;-76
2024/04/21 01:12:39;;;;;;;;;;;;;;;;;;1110508;26;19998;-76
2024/04/21 01:13:10;;;;;;;;;;;;;;;;;;1111775;26;19929;-78
2024/04/21 01:13:40;;;;;;;;;;;;;;;;;;1112117;26;20404;-77
2024/04/21 01:14:10;;;;;;;;;;;;;;;;;;1111806;26;20002;-77
2024/04/21 01:14:40;;;;;;;;;;;;;;;;;;1118735;21;19945;-77
2024/04/21 01:15:10;;;;;;;;;;;;;;;;;;1112044;26;19930;-77
2024/04/21 01:15:41;;;;;;;;;;;;;;;;;;1112032;26;19929;-77
2024/04/21 01:16:11;;;;;;;;;;;;;;;;;;1111999;26;20424;-77
2024/04/21 01:16:41;;;;;;;;;;;;;;;;;;1112188;26;19934;-77
2024/04/21 01:17:11;;;;;;;;;;;;;;;;;;1112083;26;19936;-77
2024/04/21 01:17:42;;;;;;;;;;;;;;;;;;1112382;26;19930;-77
2024/04/21 01:18:12;;;;;;;;;;;;;;;;;;1111974;26;20007;-77
2024/04/21 01:18:44;;;;;;;;;;;;;;;;;;1112717;26;19938;-76
2024/04/21 01:19:14;;;;;;;;;;;;;;;;;;1115020;21;19936;-76
2024/04/21 01:19:44;;;;;;;;;;;;;;;;;;1104619;26;19942;-76
2024/04/21 01:20:15;;;;;;;;;;;;;;;;;;1104436;26;19940;-76
2024/04/21 01:20:45;;;;;;;;;;;;;;;;;;1106226;26;19930;-76
2024/04/21 01:21:15;;;;;;;;;;;;;;;;;;1111738;26;20301;-76
2024/04/21 01:21:45;;;;;;;;;;;;;;;;;;1112259;26;19941;-76
2024/04/21 01:22:15;;;;;;;;;;;;;;;;;;1111976;26;19945;-76
2024/04/21 01:22:46;;;;;;;;;;;;;;;;;;1112134;26;19999;-77
2024/04/21 01:23:19;;;;;;;;;;;;;;;;;;1112127;26;19941;-77
2024/04/21 01:23:49;;;;;;;;;;;;;;;;;;1110495;26;19937;-77
2024/04/21 01:24:19;;;;;;;;;;;;;;;;;;1112004;26;19949;-77
2024/04/21 01:24:50;;;;;;;;;;;;;;;;;;1104610;26;19970;-77
2024/04/21 01:25:20;;;;;;;;;;;;;;;;;;1104358;26;19950;-77
2024/04/21 01:25:50;;;;;;;;;;;;;;;;;;1104295;26;20356;-77
2024/04/21 01:26:20;;;;;;;;;;;;;;;;;;1104402;26;19957;-77
2024/04/21 01:26:51;;;;;;;;;;;;;;;;;;1104499;26;19966;-77
2024/04/21 01:27:21;;;;;;;;;;;;;;;;;;1104391;26;20277;-77
2024/04/21 01:27:51;;;;;;;;;;;;;;;;;;1104590;26;19962;-77
2024/04/21 01:28:21;;;;;;;;;;;;;;;;;;1104470;26;20061;-76
2024/04/21 01:28:52;;;;;;;;;;;;;;;;;;1112282;26;20467;-76
2024/04/21 01:29:22;;;;;;;;;;;;;;;;;;1104344;26;19999;-76
2024/04/21 01:29:52;;;;;;;;;;;;;;;;;;1104440;26;19962;-76
2024/04/21 01:30:22;;;;;;;;;;;;;;;;;;1111057;21;19957;-76
2024/04/21 01:30:53;;;;;;;;;;;;;;;;;;1104420;26;20468;-76
2024/04/21 01:31:24;;;;;;;;;;;;;;;;;;1104295;26;19937;-76
2024/04/21 01:31:54;;;;;;;;;;;;;;;;;;1097369;26;20290;-76
2024/04/21 01:32:24;;;;;;;;;;;;;;;;;;1104340;26;19949;-76
2024/04/21 01:32:54;;;;;;;;;;;;;;;;;;1104553;26;20003;-76
2024/04/21 01:33:25;;;;;;;;;;;;;;;;;;1104309;26;19934;-76
2024/04/21 01:33:55;;;;;;;;;;;;;;;;;;1111517;26;19966;-76
2024/04/21 01:34:25;;;;;;;;;;;;;;;;;;1111746;26;20406;-75
2024/04/21 01:34:55;;;;;;;;;;;;;;;;;;1104137;26;20378;-76
2024/04/21 01:35:26;;;;;;;;;;;;;;;;;;1104145;26;20432;-76
2024/04/21 01:35:56;;;;;;;;;;;;;;;;;;1104769;26;19937;-76
2024/04/21 01:36:26;;;;;;;;;;;;;;;;;;1104523;26;20356;-76
2024/04/21 01:36:56;;;;;;;;;;;;;;;;;;1115589;26;19968;-76
2024/04/21 01:37:28;;;;;;;;;;;;;;;;;;1115306;26;19937;-76
2024/04/21 01:37:58;;;;;;;;;;;;;;;;;;1107594;26;20007;-76
2024/04/21 01:38:28;;;;;;;;;;;;;;;;;;1107505;26;20333;-76
2024/04/21 01:38:58;;;;;;;;;;;;;;;;;;1107979;26;19973;-76
2024/04/21 01:39:29;;;;;;;;;;;;;;;;;;1108074;26;20368;-76
2024/04/21 01:39:59;;;;;;;;;;;;;;;;;;1108390;26;20328;-76
2024/04/21 01:40:29;;;;;;;;;;;;;;;;;;1108062;26;19936;-77
2024/04/21 01:40:59;;;;;;;;;;;;;;;;;;1104416;26;20009;-77
2024/04/21 01:41:30;;;;;;;;;;;;;;;;;;1112653;26;19929;-77
2024/04/21 01:42:00;;;;;;;;;;;;;;;;;;1104979;26;19938;-77
2024/04/21 01:42:30;;;;;;;;;;;;;;;;;;1105058;26;20013;-77
2024/04/21 01:43:00;;;;;;;;;;;;;;;;;;1105036;26;19930;-77
2024/04/21 01:43:31;;;;;;;;;;;;;;;;;;1104953;26;19946;-77
2024/04/21 01:44:01;;;;;;;;;;;;;;;;;;1104939;26;19934;-77
2024/04/21 01:44:31;;;;;;;;;;;;;;;;;;1105627;26;19930;-77
2024/04/21 01:45:02;;;;;;;;;;;;;;;;;;1112722;26;20590;-77
2024/04/21 01:45:33;;;;;;;;;;;;;;;;;;1112682;26;19933;-77
2024/04/21 01:46:03;;;;;;;;;;;;;;;;;;1112869;26;19961;-77
2024/04/21 01:46:33;;;;;;;;;;;;;;;;;;1105055;26;19999;-77
2024/04/21 01:47:03;;;;;;;;;;;;;;;;;;1105179;26;19941;-77
2024/04/21 01:47:34;;;;;;;;;;;;;;;;;;1104914;26;19937;-77
2024/04/21 01:48:04;;;;;;;;;;;;;;;;;;1104827;26;19934;-77
2024/04/21 01:48:34;;;;;;;;;;;;;;;;;;1105334;26;20000;-77
2024/04/21 01:49:04;;;;;;;;;;;;;;;;;;1104943;26;19950;-77
2024/04/21 01:49:35;;;;;;;;;;;;;;;;;;1111542;21;19950;-76
2024/04/21 01:50:10;;;;;;;;;;;;;;;;;;1104963;26;19934;-77
2024/04/21 01:50:40;;;;;;;;;;;;;;;;;;1096430;27;20004;-77
2024/04/21 01:51:10;;;;;;;;;;;;;;;;;;1098108;27;19963;-77
2024/04/21 01:51:41;;;;;;;;;;;;;;;;;;1098223;27;19983;-77
2024/04/21 01:52:11;;;;;;;;;;;;;;;;;;1098102;26;19930;-77
2024/04/21 01:52:41;;;;;;;;;;;;;;;;;;1105098;26;19942;-77
2024/04/21 01:53:11;;;;;;;;;;;;;;;;;;1105064;26;20480;-77
2024/04/21 01:53:42;;;;;;;;;;;;;;;;;;1101894;26;19930;-77
2024/04/21 01:54:12;;;;;;;;;;;;;;;;;;1100873;26;19936;-78
2024/04/21 01:54:42;;;;;;;;;;;;;;;;;;1094024;27;19932;-77
2024/04/21 01:55:12;;;;;;;;;;;;;;;;;;1094223;27;19970;-77
2024/04/21 01:55:42;;;;;;;;;;;;;;;;;;1097939;27;19975;-77
2024/04/21 01:56:13;;;;;;;;;;;;;;;;;;1097700;27;19930;-77
2024/04/21 01:56:43;;;;;;;;;;;;;;;;;;1105165;26;19937;-77
2024/04/21 01:57:13;;;;;;;;;;;;;;;;;;1104942;26;19930;-77
2024/04/21 01:57:44;;;;;;;;;;;;;;;;;;1097948;27;19950;-77
2024/04/21 01:58:14;;;;;;;;;;;;;;;;;;1090564;27;19935;-77
2024/04/21 01:58:44;;;;;;;;;;;;;;;;;;1091061;27;19967;-77
2024/04/21 01:59:14;;;;;;;;;;;;;;;;;;1083460;27;19935;-77
2024/04/21 01:59:45;;;;;;;;;;;;;;;;;;1089747;27;19930;-77
2024/04/21 02:00:15;;;;;;;;;;;;;;;;;;1090878;27;19982;-77
2024/04/21 02:00:45;;;;;;;;;;;;;;;;;;1098000;27;19954;-77
2024/04/21 02:01:15;;;;;;;;;;;;;;;;;;1097744;27;19939;-78
2024/04/21 02:01:45;;;;;;;;;;;;;;;;;;1090749;27;19937;-78
2024/04/21 02:02:16;;;;;;;;;;;;;;;;;;1090657;27;19942;-78
2024/04/21 02:02:46;;;;;;;;;;;;;;;;;;1090904;27;19931;-78
2024/04/21 02:03:16;;;;;;;;;;;;;;;;;;1097808;27;19939;-76
2024/04/21 02:03:46;;;;;;;;;;;;;;;;;;1097922;27;19935;-76
2024/04/21 02:04:17;;;;;;;;;;;;;;;;;;1097855;27;19937;-76
2024/04/21 02:04:47;;;;;;;;;;;;;;;;;;1098420;26;19931;-76
2024/04/21 02:05:17;;;;;;;;;;;;;;;;;;1101569;26;19937;-77
2024/04/21 02:05:47;;;;;;;;;;;;;;;;;;1100553;26;20007;-77
2024/04/21 02:06:18;;;;;;;;;;;;;;;;;;1093904;27;19946;-77
2024/04/21 02:06:48;;;;;;;;;;;;;;;;;;1094905;27;19943;-77
2024/04/21 02:07:18;;;;;;;;;;;;;;;;;;1097879;27;19938;-76
2024/04/21 02:07:50;;;;;;;;;;;;;;;;;;1097955;26;19941;-77
2024/04/21 02:08:20;;;;;;;;;;;;;;;;;;1096061;27;20022;-77
2024/04/21 02:08:50;;;;;;;;;;;;;;;;;;1097972;27;20022;-77
2024/04/21 02:09:21;;;;;;;;;;;;;;;;;;1097722;27;20036;-77
2024/04/21 02:09:51;;;;;;;;;;;;;;;;;;1097805;27;19937;-77
2024/04/21 02:10:21;;;;;;;;;;;;;;;;;;1104825;26;19937;-77
2024/04/21 02:10:51;;;;;;;;;;;;;;;;;;1105174;26;19940;-77
2024/04/21 02:11:22;;;;;;;;;;;;;;;;;;1098294;26;19939;-77
2024/04/21 02:11:52;;;;;;;;;;;;;;;;;;1098254;27;20277;-76
2024/04/21 02:12:22;;;;;;;;;;;;;;;;;;1098298;27;19937;-77
2024/04/21 02:12:52;;;;;;;;;;;;;;;;;;1101629;26;20370;-77
2024/04/21 02:13:22;;;;;;;;;;;;;;;;;;1101320;26;19962;-77
2024/04/21 02:13:53;;;;;;;;;;;;;;;;;;1093846;27;19959;-77
2024/04/21 02:14:23;;;;;;;;;;;;;;;;;;1093904;27;19931;-77
2024/04/21 02:14:53;;;;;;;;;;;;;;;;;;1098175;27;20026;-77
2024/04/21 02:15:24;;;;;;;;;;;;;;;;;;1097622;27;20685;-75
2024/04/21 02:15:54;;;;;;;;;;;;;;;;;;1098473;27;20378;-75
2024/04/21 02:16:24;;;;;;;;;;;;;;;;;;1098695;27;19930;-78
2024/04/21 02:16:54;;;;;;;;;;;;;;;;;;1102582;26;20005;-77
2024/04/21 02:17:24;;;;;;;;;;;;;;;;;;1101931;26;20066;-77
2024/04/21 02:17:55;;;;;;;;;;;;;;;;;;1094649;27;20386;-77
2024/04/21 02:18:25;;;;;;;;;;;;;;;;;;1094898;27;19938;-77
2024/04/21 02:18:55;;;;;;;;;;;;;;;;;;1097969;27;19931;-77
2024/04/21 02:19:25;;;;;;;;;;;;;;;;;;1093726;27;20367;-76
2024/04/21 02:19:56;;;;;;;;;;;;;;;;;;1094041;27;19931;-75
2024/04/21 02:20:26;;;;;;;;;;;;;;;;;;1093792;27;19942;-75
2024/04/21 02:20:56;;;;;;;;;;;;;;;;;;1101859;26;19930;-75
2024/04/21 02:21:26;;;;;;;;;;;;;;;;;;1097743;27;20286;-75
2024/04/21 02:21:57;;;;;;;;;;;;;;;;;;1093935;26;19945;-75
2024/04/21 02:22:27;;;;;;;;;;;;;;;;;;1093851;27;19931;-75
2024/04/21 02:22:57;;;;;;;;;;;;;;;;;;1094701;27;19996;-75
2024/04/21 02:23:27;;;;;;;;;;;;;;;;;;1094513;27;20383;-75
2024/04/21 02:23:58;;;;;;;;;;;;;;;;;;1097927;27;20002;-75
2024/04/21 02:24:28;;;;;;;;;;;;;;;;;;1098436;27;20342;-75
2024/04/21 02:24:58;;;;;;;;;;;;;;;;;;1093941;27;19946;-75
2024/04/21 02:25:28;;;;;;;;;;;;;;;;;;1094854;27;20001;-75
2024/04/21 02:25:59;;;;;;;;;;;;;;;;;;1100879;26;19938;-75
2024/04/21 02:26:29;;;;;;;;;;;;;;;;;;1094146;27;19931;-75
2024/04/21 02:26:59;;;;;;;;;;;;;;;;;;1097854;27;20333;-75
2024/04/21 02:27:29;;;;;;;;;;;;;;;;;;1090543;27;19943;-75
2024/04/21 02:28:00;;;;;;;;;;;;;;;;;;1090906;27;19972;-75
2024/04/21 02:28:30;;;;;;;;;;;;;;;;;;1090737;27;19938;-75
2024/04/21 02:29:00;;;;;;;;;;;;;;;;;;1083841;27;19931;-75
2024/04/21 02:29:30;;;;;;;;;;;;;;;;;;1097749;27;19962;-75
2024/04/21 02:30:01;;;;;;;;;;;;;;;;;;1093850;27;20004;-76
2024/04/21 02:30:31;;;;;;;;;;;;;;;;;;1094105;27;19971;-76
2024/04/21 02:31:03;;;;;;;;;;;;;;;;;;1095937;27;19980;-76
2024/04/21 02:31:33;;;;;;;;;;;;;;;;;;1093782;27;19970;-76
2024/04/21 02:32:04;;;;;;;;;;;;;;;;;;1098443;27;19930;-76
2024/04/21 02:32:34;;;;;;;;;;;;;;;;;;1091023;27;19931;-75
2024/04/21 02:33:04;;;;;;;;;;;;;;;;;;1090692;27;19942;-76
2024/04/21 02:33:34;;;;;;;;;;;;;;;;;;1090634;27;20294;-75
2024/04/21 02:34:05;;;;;;;;;;;;;;;;;;1090727;27;20032;-75
2024/04/21 02:34:35;;;;;;;;;;;;;;;;;;1090859;27;19931;-75
2024/04/21 02:35:05;;;;;;;;;;;;;;;;;;1090850;27;19938;-75
2024/04/21 02:35:36;;;;;;;;;;;;;;;;;;1097415;27;19942;-75
2024/04/21 02:36:06;;;;;;;;;;;;;;;;;;1094537;27;19978;-75
2024/04/21 02:36:36;;;;;;;;;;;;;;;;;;1101894;26;19933;-75
2024/04/21 02:37:06;;;;;;;;;;;;;;;;;;1093786;27;19942;-75
2024/04/21 02:37:37;;;;;;;;;;;;;;;;;;1093955;26;19938;-75
2024/04/21 02:38:07;;;;;;;;;;;;;;;;;;1097770;27;19946;-76
2024/04/21 02:38:37;;;;;;;;;;;;;;;;;;1097853;27;19946;-75
2024/04/21 02:39:07;;;;;;;;;;;;;;;;;;1098041;27;19951;-75
2024/04/21 02:39:38;;;;;;;;;;;;;;;;;;1097905;27;19931;-75
2024/04/21 02:40:08;;;;;;;;;;;;;;;;;;1090629;27;19931;-75
2024/04/21 02:40:38;;;;;;;;;;;;;;;;;;1091054;27;19938;-75
2024/04/21 02:41:08;;;;;;;;;;;;;;;;;;1090413;27;19935;-75
2024/04/21 02:41:39;;;;;;;;;;;;;;;;;;1083764;27;19983;-75
2024/04/21 02:42:09;;;;;;;;;;;;;;;;;;1090710;27;20407;-75
2024/04/21 02:42:39;;;;;;;;;;;;;;;;;;1083977;27;20010;-75
2024/04/21 02:43:09;;;;;;;;;;;;;;;;;;1083871;27;19940;-75
2024/04/21 02:43:40;;;;;;;;;;;;;;;;;;1094055;27;19937;-75
2024/04/21 02:44:10;;;;;;;;;;;;;;;;;;1100752;26;20293;-75
2024/04/21 02:44:41;;;;;;;;;;;;;;;;;;1098098;27;19958;-75
2024/04/21 02:45:11;;;;;;;;;;;;;;;;;;1097750;27;19937;-75
2024/04/21 02:45:41;;;;;;;;;;;;;;;;;;1093876;26;19935;-76
2024/04/21 02:46:11;;;;;;;;;;;;;;;;;;1094315;27;19963;-76
2024/04/21 02:46:43;;;;;;;;;;;;;;;;;;1101898;26;19950;-76
2024/04/21 02:47:13;;;;;;;;;;;;;;;;;;1101765;26;19938;-76
2024/04/21 02:47:43;;;;;;;;;;;;;;;;;;1105078;26;19937;-75
2024/04/21 02:48:14;;;;;;;;;;;;;;;;;;1097542;27;19945;-75
2024/04/21 02:48:44;;;;;;;;;;;;;;;;;;1090939;27;19942;-74
2024/04/21 02:49:14;;;;;;;;;;;;;;;;;;1090694;27;20443;-75
2024/04/21 02:49:46;;;;;;;;;;;;;;;;;;1090669;27;19987;-75
2024/04/21 02:50:17;;;;;;;;;;;;;;;;;;1097694;27;19938;-75
2024/04/21 02:50:47;;;;;;;;;;;;;;;;;;1097643;27;21591;-75
2024/04/21 02:51:18;;;;;;;;;;;;;;;;;;1091204;27;19963;-76
2024/04/21 02:51:49;;;;;;;;;;;;;;;;;;1101769;26;20034;-76
2024/04/21 02:52:19;;;;;;;;;;;;;;;;;;1101606;26;19941;-74
2024/04/21 02:52:49;;;;;;;;;;;;;;;;;;1100591;26;19930;-75
2024/04/21 02:53:19;;;;;;;;;;;;;;;;;;1100651;26;19930;-75
2024/04/21 02:53:50;;;;;;;;;;;;;;;;;;1101305;26;19984;-75
2024/04/21 02:54:25;;;;;;;;;;;;;;;;;;1101662;26;19931;-75
2024/04/21 02:54:55;;;;;;;;;;;;;;;;;;1099047;26;19965;-75
2024/04/21 02:55:26;;;;;;;;;;;;;;;;;;1098013;27;19939;-75
2024/04/21 02:55:56;;;;;;;;;;;;;;;;;;1098167;26;19941;-77
2024/04/21 02:56:26;;;;;;;;;;;;;;;;;;1113614;21;20000;-77
2024/04/21 02:56:56;;;;;;;;;;;;;;;;;;1112490;26;19930;-77
2024/04/21 02:57:27;;;;;;;;;;;;;;;;;;1112475;26;20329;-78
2024/04/21 02:57:57;;;;;;;;;;;;;;;;;;1112393;26;19933;-76
2024/04/21 02:58:27;;;;;;;;;;;;;;;;;;1112603;26;19966;-76
2024/04/21 02:58:57;;;;;;;;;;;;;;;;;;1112794;26;19933;-75
2024/04/21 02:59:28;;;;;;;;;;;;;;;;;;1110078;26;19949;-75
2024/04/21 02:59:58;;;;;;;;;;;;;;;;;;1112340;26;20384;-75
2024/04/21 03:00:28;;;;;;;;;;;;;;;;;;1112885;26;19929;-75
2024/04/21 03:00:58;;;;;;;;;;;;;;;;;;1104795;26;20000;-75
2024/04/21 03:01:28;;;;;;;;;;;;;;;;;;1104715;26;20034;-75
2024/04/21 03:01:59;;;;;;;;;;;;;;;;;;1104740;26;19937;-75
2024/04/21 03:02:29;;;;;;;;;;;;;;;;;;1105079;26;19999;-75
2024/04/21 03:02:59;;;;;;;;;;;;;;;;;;1105039;26;20400;-77
2024/04/21 03:03:30;;;;;;;;;;;;;;;;;;1105109;26;20302;-77
2024/04/21 03:04:00;;;;;;;;;;;;;;;;;;1104906;26;19930;-77
2024/04/21 03:04:30;;;;;;;;;;;;;;;;;;1104925;26;19930;-77
2024/04/21 03:05:00;;;;;;;;;;;;;;;;;;1104910;26;19930;-77
2024/04/21 03:05:31;;;;;;;;;;;;;;;;;;1104264;26;20348;-77
2024/04/21 03:06:01;;;;;;;;;;;;;;;;;;1097884;27;19934;-78
2024/04/21 03:06:31;;;;;;;;;;;;;;;;;;1105071;26;20040;-76
2024/04/21 03:07:02;;;;;;;;;;;;;;;;;;1104958;26;20254;-75
2024/04/21 03:07:32;;;;;;;;;;;;;;;;;;1112501;26;20379;-75
2024/04/21 03:08:02;;;;;;;;;;;;;;;;;;1112143;26;19930;-76
2024/04/21 03:08:33;;;;;;;;;;;;;;;;;;1105072;26;19930;-76
2024/04/21 03:09:03;;;;;;;;;;;;;;;;;;1097821;26;19977;-76
2024/04/21 03:09:33;;;;;;;;;;;;;;;;;;1097587;27;20021;-76
2024/04/21 03:10:03;;;;;;;;;;;;;;;;;;1097761;27;19938;-76
2024/04/21 03:10:34;;;;;;;;;;;;;;;;;;1102478;26;19930;-75
2024/04/21 03:11:04;;;;;;;;;;;;;;;;;;1108960;26;20005;-75
2024/04/21 03:11:34;;;;;;;;;;;;;;;;;;1099270;26;19975;-75
2024/04/21 03:12:04;;;;;;;;;;;;;;;;;;1108681;26;20320;-75
2024/04/21 03:12:35;;;;;;;;;;;;;;;;;;1099880;26;19946;-76
2024/04/21 03:13:05;;;;;;;;;;;;;;;;;;1101686;26;19937;-77
2024/04/21 03:13:35;;;;;;;;;;;;;;;;;;1108740;26;20373;-76
2024/04/21 03:14:05;;;;;;;;;;;;;;;;;;1106202;26;19934;-76
2024/04/21 03:14:35;;;;;;;;;;;;;;;;;;1104888;26;19937;-76
2024/04/21 03:15:06;;;;;;;;;;;;;;;;;;1104912;26;19930;-76
2024/04/21 03:15:36;;;;;;;;;;;;;;;;;;1104907;26;19929;-75
2024/04/21 03:16:07;;;;;;;;;;;;;;;;;;1104714;26;20342;-75
2024/04/21 03:16:37;;;;;;;;;;;;;;;;;;1104681;26;20339;-76
2024/04/21 03:17:07;;;;;;;;;;;;;;;;;;1104915;26;19930;-75
2024/04/21 03:17:37;;;;;;;;;;;;;;;;;;1104769;26;19937;-75
2024/04/21 03:18:08;;;;;;;;;;;;;;;;;;1104741;26;19929;-75
2024/04/21 03:18:38;;;;;;;;;;;;;;;;;;1112702;26;19958;-75
2024/04/21 03:19:08;;;;;;;;;;;;;;;;;;1111921;26;19941;-76
2024/04/21 03:19:38;;;;;;;;;;;;;;;;;;1112225;26;19961;-75
2024/04/21 03:20:09;;;;;;;;;;;;;;;;;;1104747;26;19970;-76
2024/04/21 03:20:39;;;;;;;;;;;;;;;;;;1108059;26;20068;-76
2024/04/21 03:21:09;;;;;;;;;;;;;;;;;;1108110;26;19933;-76
2024/04/21 03:21:39;;;;;;;;;;;;;;;;;;1107394;26;20395;-76
2024/04/21 03:22:10;;;;;;;;;;;;;;;;;;1115929;26;19998;-75
2024/04/21 03:22:40;;;;;;;;;;;;;;;;;;1116303;26;19934;-75
2024/04/21 03:23:10;;;;;;;;;;;;;;;;;;1115951;26;19941;-75
2024/04/21 03:23:40;;;;;;;;;;;;;;;;;;1106978;26;19934;-75
2024/04/21 03:24:11;;;;;;;;;;;;;;;;;;1104591;26;19938;-75
2024/04/21 03:24:41;;;;;;;;;;;;;;;;;;1105010;26;19942;-75
2024/04/21 03:25:11;;;;;;;;;;;;;;;;;;1105865;26;19930;-75
2024/04/21 03:25:41;;;;;;;;;;;;;;;;;;1108748;26;19999;-75
2024/04/21 03:26:12;;;;;;;;;;;;;;;;;;1108449;26;20455;-74
2024/04/21 03:26:42;;;;;;;;;;;;;;;;;;1100902;26;19936;-74
2024/04/21 03:27:12;;;;;;;;;;;;;;;;;;1107823;26;19937;-74